Leibnitz, Austria
Current Conditions -  °F | °C
As of 8:20 AM on Saturday 01 Nov 2014 (Local Time) from LOWG Reporting Station
Moderate Fog Moderate Fog  
Wind Chill: 37°   Ceiling: 100
Heat Index: 37°   Visibility: 0.12mi
Dew Point: 37°   Wind: 1mph
Humidity: 100%   Direction: NA
Pressure: 30.33"   Gusts: NA
Location:  46.78°N, 15.56°E
Report Text: LOWG 010720Z VRB01KT 0200 R17/0200N R35/0250N FG VV001 03/03 Q1027 BECMG 2000 BCFG SCT003
Loading
Personal Weather Stations






























Interactive Weather Map
Tropical Storm Tracking
New forecast layout! Learn more

10-Day Weather Forecast

Advertisements
Track Severe Weather on mobile